»·PEaware :: N132AT L88-KSBP

N132AT :: L88-KSBP

FLIGHT INFORMATION

Flight Status: Arrived
Operator: Privately registered:
United States
More flights under this callsign
Pilot: Alex T. (33234)
Aircraft: CESSNA 172 SKYHAWK
(C172)
More flights by this aircraft type
Origin: L88 New Cuyama
United States
Destination: KSBP San Luis Co Regl
United States
More flights between these airports :: More routes between these airports
Route: WYNNR
File this flight plan on PilotEdge
Remarks:
Altitude:
(Current/Filed)
4,500ft
Speed:
(Current/Filed)
120kts
Departed: 13-Jan-21 03:57 PM
Arrived: 13-Jan-21 04:25 PM
Distance/Time
Traveled:
388nm/0:28
Distance/Time
To Go:
Arrived

Flight Plot

Page will automatically refresh every two minutes.

Flight plan parsing failed; only flown route is shown


Map Options




Map Legend


Flown Route
Filed Route
Departure Airport
Arrival Airport
Navaid (VOR, NDB)
Fix

Horizontal Profiles

Position Reports

Time Latitude Longitude Heading Altitude Ground
Speed
13-Jan-21 15:44 34.943161 -119.690984 24 2151ft 0kts
13-Jan-21 15:45 34.943161 -119.690984 24 2151ft 0kts
13-Jan-21 15:46 34.943161 -119.690984 24 2151ft 0kts
13-Jan-21 15:47 34.943161 -119.690984 24 2151ft 0kts
13-Jan-21 15:48 34.943161 -119.690984 24 2151ft 0kts
13-Jan-21 15:49 34.943161 -119.690984 24 2151ft 0kts
13-Jan-21 15:50 34.943161 -119.690984 24 2151ft 0kts
13-Jan-21 15:51 34.943161 -119.690984 24 2151ft 0kts
13-Jan-21 15:52 34.943161 -119.690984 24 2151ft 0kts
13-Jan-21 15:53 34.943161 -119.690984 24 2151ft 0kts
13-Jan-21 15:54 34.943161 -119.690984 24 2151ft 0kts
13-Jan-21 15:55 34.942745 -119.691234 196 2150ft 0kts
13-Jan-21 15:56 34.942270 -119.691188 127 2150ft 0kts
13-Jan-21 15:57 34.938319 -119.680932 110 2382ft 74kts
13-Jan-21 15:57 34.929157 -119.679835 295 3083ft 76kts
13-Jan-21 15:58 34.940610 -119.705193 326 3806ft 91kts
13-Jan-21 16:00 34.957700 -119.738080 292 4511ft 104kts
13-Jan-21 16:00 34.967225 -119.766076 294 4842ft 116kts
13-Jan-21 16:01 34.980274 -119.804928 294 4873ft 122kts
13-Jan-21 16:03 34.995187 -119.849145 294 4878ft 120kts
13-Jan-21 16:03 35.005846 -119.880801 294 4876ft 121kts
13-Jan-21 16:04 35.018608 -119.918787 294 4873ft 120kts
13-Jan-21 16:05 35.031352 -119.956695 294 4873ft 121kts
13-Jan-21 16:06 35.044331 -119.995422 294 4790ft 123kts
13-Jan-21 16:07 35.057402 -120.034415 294 4788ft 125kts
13-Jan-21 16:08 35.070470 -120.073421 294 4766ft 121kts
13-Jan-21 16:09 35.083332 -120.111909 294 4780ft 122kts
13-Jan-21 16:10 35.096252 -120.150703 295 4777ft 122kts
13-Jan-21 16:11 35.109085 -120.189207 294 4778ft 122kts
13-Jan-21 16:12 35.121411 -120.227655 290 4788ft 123kts
13-Jan-21 16:13 35.132563 -120.267821 291 4703ft 124kts
13-Jan-21 16:14 35.143474 -120.306948 292 4489ft 118kts
13-Jan-21 16:15 35.154407 -120.345932 291 3968ft 121kts
13-Jan-21 16:16 35.165262 -120.384734 290 3538ft 119kts
13-Jan-21 16:17 35.175920 -120.422849 290 3136ft 116kts
13-Jan-21 16:18 35.184559 -120.460166 281 2739ft 114kts
13-Jan-21 16:19 35.191176 -120.497926 282 2338ft 113kts
13-Jan-21 16:20 35.197651 -120.535192 282 1923ft 111kts
13-Jan-21 16:21 35.205303 -120.571584 295 1539ft 110kts
13-Jan-21 16:22 35.218965 -120.603812 289 1153ft 97kts
13-Jan-21 16:23 35.230897 -120.629692 303 318ft 78kts
13-Jan-21 16:24 35.239070 -120.643989 308 182ft 15kts
13-Jan-21 16:25 35.239803 -120.644086 40 181ft 0kts
13-Jan-21 16:26 35.239808 -120.644081 40 181ft 0kts
13-Jan-21 16:27 35.239648 -120.643193 126 184ft 2kts
13-Jan-21 16:28 35.239451 -120.642337 113 186ft 0kts
13-Jan-21 16:30 0.000408 0.013975 359 3ft 0kts
13-Jan-21 16:31 0.000408 0.013975 0 3ft 1kts
13-Jan-21 16:32 34.852889 -111.783089 226 4830ft 0kts
13-Jan-21 16:33 34.852890 -111.783088 226 4827ft 0kts
13-Jan-21 16:34 34.850045 -111.786604 223 4809ft 68kts
13-Jan-21 16:35 34.840230 -111.788428 23 5348ft 83kts
13-Jan-21 16:36 34.856708 -111.771561 44 5923ft 83kts
13-Jan-21 16:37 34.860977 -111.779775 206 5894ft 96kts
13-Jan-21 16:38 34.837524 -111.796557 203 5964ft 102kts

Navigation Log

Ident Type
Flight plan parsing failed, navigation log unavailable